Time;durP1;ratioP1;P1;durP2;ratioP2;P2;SDS_P1;SDS_P2;PMS_P1;PMS_P2;Temp;Humidity;BMP_temperature;BMP_pressure;BME280_temperature;BME280_humidity;BME280_pressure;Samples;Min_cycle;Max_cycle;Signal;HPM_P1;HPM_P2
2021/03/30 00:01:12;;;;;;;5.60;2.70;;;7.90;58.80;;;;;;6229984;23;20026;-61
2021/03/30 00:03:37;;;;;;;5.03;2.90;;;8.10;59.20;;;;;;6232149;23;20308;-62
2021/03/30 00:06:03;;;;;;;5.93;2.90;;;8.40;59.50;;;;;;6237209;23;20157;-61
2021/03/30 00:08:28;;;;;;;4.40;2.90;;;8.50;57.90;;;;;;6224924;23;20028;-61
2021/03/30 00:10:54;;;;;;;11.10;3.00;;;8.20;58.90;;;;;;6227056;23;20011;-61
2021/03/30 00:13:20;;;;;;;4.30;2.60;;;8.30;58.70;;;;;;6229729;23;20016;-61
2021/03/30 00:15:46;;;;;;;6.80;2.80;;;8.50;59.20;;;;;;6205598;23;20020;-61
2021/03/30 00:18:11;;;;;;;7.40;3.08;;;8.60;58.20;;;;;;6236323;23;20004;-61
2021/03/30 00:20:37;;;;;;;5.68;2.92;;;8.70;58.70;;;;;;6224500;23;20043;-62
2021/03/30 00:23:03;;;;;;;5.10;2.90;;;8.80;58.40;;;;;;6226918;23;20016;-61
2021/03/30 00:25:28;;;;;;;6.15;2.92;;;8.40;58.30;;;;;;6228605;23;20051;-61
2021/03/30 00:27:54;;;;;;;8.13;3.35;;;8.30;59.60;;;;;;6231235;23;20000;-61
2021/03/30 00:30:20;;;;;;;7.55;3.55;;;8.00;59.60;;;;;;6198000;23;20003;-61
2021/03/30 00:32:45;;;;;;;5.60;2.50;;;7.60;60.30;;;;;;6226327;23;20306;-61
2021/03/30 00:35:11;;;;;;;6.30;2.97;;;7.80;59.50;;;;;;6202968;23;20005;-61
2021/03/30 00:37:37;;;;;;;6.40;3.08;;;7.50;61.10;;;;;;6214026;23;20020;-61
2021/03/30 00:40:07;;;;;;;5.07;3.00;;;8.00;61.00;;;;;;6205765;23;20026;-61
2021/03/30 00:42:32;;;;;;;6.82;3.03;;;8.40;60.30;;;;;;6225945;23;20060;-61
2021/03/30 00:44:58;;;;;;;4.90;2.78;;;8.40;59.60;;;;;;6238718;23;19997;-61
2021/03/30 00:47:24;;;;;;;7.18;3.00;;;8.50;59.60;;;;;;6227253;23;20004;-61
2021/03/30 00:49:49;;;;;;;7.18;3.38;;;8.30;58.40;;;;;;6229643;23;20008;-61
2021/03/30 00:52:16;;;;;;;7.65;2.72;;;7.60;60.40;;;;;;6231373;23;20009;-61
2021/03/30 00:54:41;;;;;;;4.80;2.92;;;7.60;62.10;;;;;;6199789;23;20008;-61
2021/03/30 00:57:07;;;;;;;6.25;3.00;;;7.90;59.20;;;;;;6238410;23;20391;-61
2021/03/30 00:59:33;;;;;;;6.93;3.10;;;8.20;60.10;;;;;;6170478;23;20037;-61
2021/03/30 01:01:58;;;;;;;5.30;3.60;;;8.10;59.80;;;;;;6198475;23;20009;-61
2021/03/30 01:04:24;;;;;;;7.05;3.55;;;7.70;60.00;;;;;;6215861;23;20009;-62
2021/03/30 01:06:50;;;;;;;11.63;3.83;;;7.30;62.20;;;;;;6232962;23;20064;-61
2021/03/30 01:09:49;;;;;;;7.28;3.17;;;7.80;62.30;;;;;;6208078;23;19996;-61
2021/03/30 01:12:32;;;;;;;5.30;2.97;;;7.80;61.00;;;;;;6205712;23;20031;-61
2021/03/30 01:15:21;;;;;;;8.43;3.20;;;7.50;61.60;;;;;;6212261;23;20001;-61
2021/03/30 01:17:46;;;;;;;4.15;2.90;;;7.70;61.20;;;;;;6200358;23;20011;-61
2021/03/30 01:20:46;;;;;;;5.60;2.80;;;7.90;61.50;;;;;;6227757;23;20000;-62
2021/03/30 01:23:29;;;;;;;5.80;3.40;;;7.80;59.50;;;;;;6227019;23;20351;-61
2021/03/30 01:26:03;;;;;;;5.55;2.90;;;8.00;61.00;;;;;;6228415;23;20015;-61
2021/03/30 01:28:39;;;;;;;6.28;2.92;;;8.10;60.20;;;;;;6230279;23;20009;-61
2021/03/30 01:31:05;;;;;;;6.65;3.05;;;7.90;59.90;;;;;;6180427;23;20020;-61
2021/03/30 01:33:30;;;;;;;6.50;2.90;;;7.60;62.20;;;;;;6208218;23;20008;-61
2021/03/30 01:35:56;;;;;;;5.30;3.25;;;7.80;61.30;;;;;;6237878;23;20055;-62
2021/03/30 01:38:22;;;;;;;6.32;3.10;;;7.80;59.80;;;;;;6200469;23;20008;-61
2021/03/30 01:40:47;;;;;;;9.32;2.90;;;7.50;60.40;;;;;;6202289;23;20063;-61
2021/03/30 01:43:13;;;;;;;6.47;3.10;;;7.50;62.00;;;;;;6179809;23;20169;-61
2021/03/30 01:45:39;;;;;;;7.22;3.25;;;7.60;62.20;;;;;;6206304;23;20329;-61
2021/03/30 01:48:04;;;;;;;6.47;3.08;;;7.80;60.30;;;;;;6238175;23;20141;-61
2021/03/30 01:50:30;;;;;;;5.78;2.80;;;7.30;60.90;;;;;;6199788;23;20056;-61
2021/03/30 01:52:57;;;;;;;6.75;2.72;;;7.10;62.30;;;;;;6201702;23;20017;-61
2021/03/30 01:55:22;;;;;;;4.68;2.78;;;7.50;62.60;;;;;;6204249;23;20021;-61
2021/03/30 01:57:52;;;;;;;4.35;2.65;;;7.60;61.00;;;;;;6206701;23;20046;-61
2021/03/30 02:00:19;;;;;;;4.82;2.75;;;7.10;61.30;;;;;;6207617;23;20296;-61
2021/03/30 02:02:45;;;;;;;4.55;2.80;;;7.50;61.80;;;;;;6171235;23;19997;-61
2021/03/30 02:05:12;;;;;;;5.97;2.75;;;7.20;63.30;;;;;;6171066;23;20103;-61
2021/03/30 02:07:37;;;;;;;5.10;2.70;;;7.30;61.90;;;;;;6186757;23;20005;-59
2021/03/30 02:10:11;;;;;;;6.32;2.90;;;7.50;62.40;;;;;;6204623;23;20023;-59
2021/03/30 02:12:42;;;;;;;5.85;2.70;;;7.80;62.20;;;;;;6225013;23;20016;-59
2021/03/30 02:15:13;;;;;;;3.95;2.65;;;7.90;61.50;;;;;;6237861;23;20020;-59
2021/03/30 02:18:05;;;;;;;5.60;2.95;;;7.90;60.80;;;;;;6199654;23;20013;-59
2021/03/30 02:20:41;;;;;;;7.00;2.90;;;7.70;61.80;;;;;;6226133;23;20009;-59
2021/03/30 02:23:25;;;;;;;4.88;2.60;;;7.80;61.30;;;;;;6199962;23;20047;-59
2021/03/30 02:25:55;;;;;;;7.47;2.58;;;7.80;61.70;;;;;;6227786;23;20334;-59
2021/03/30 02:28:47;;;;;;;6.38;2.80;;;7.40;61.50;;;;;;6179836;23;20004;-59
2021/03/30 02:31:15;;;;;;;7.25;2.63;;;7.30;61.90;;;;;;6207740;23;20008;-59
2021/03/30 02:33:41;;;;;;;7.20;2.67;;;7.00;63.00;;;;;;6198781;23;20001;-59
2021/03/30 02:36:07;;;;;;;5.43;2.30;;;7.00;64.00;;;;;;6201427;23;20036;-59
2021/03/30 02:38:33;;;;;;;7.35;2.60;;;7.50;62.90;;;;;;6198613;23;20008;-59
2021/03/30 02:40:59;;;;;;;3.75;2.33;;;7.70;61.00;;;;;;6201465;23;20292;-59
2021/03/30 02:43:24;;;;;;;5.97;2.60;;;7.10;60.80;;;;;;6198641;23;20032;-59
2021/03/30 02:45:50;;;;;;;5.82;2.58;;;6.60;63.70;;;;;;6232505;23;20080;-59
2021/03/30 02:48:16;;;;;;;3.85;2.53;;;6.90;64.00;;;;;;6207911;23;20000;-59
2021/03/30 02:50:41;;;;;;;4.40;2.50;;;7.00;63.50;;;;;;6211012;23;20000;-59
2021/03/30 02:53:07;;;;;;;4.57;2.60;;;6.80;63.90;;;;;;6226281;23;20005;-59
2021/03/30 02:55:32;;;;;;;5.00;2.40;;;7.30;63.40;;;;;;6202539;23;20009;-59
2021/03/30 02:57:58;;;;;;;7.18;2.40;;;7.10;63.00;;;;;;6204941;23;20000;-59
2021/03/30 03:00:24;;;;;;;9.77;2.88;;;7.10;62.00;;;;;;6207441;23;20000;-59
2021/03/30 03:02:49;;;;;;;8.82;3.10;;;6.90;62.40;;;;;;6236902;23;20019;-59
2021/03/30 03:05:15;;;;;;;8.82;2.88;;;6.80;63.60;;;;;;6226431;23;20039;-59
2021/03/30 03:07:41;;;;;;;5.22;2.90;;;6.90;64.50;;;;;;6228491;23;20009;-59
2021/03/30 03:10:07;;;;;;;6.32;3.00;;;7.10;62.50;;;;;;6230883;23;20008;-59
2021/03/30 03:12:34;;;;;;;7.80;2.78;;;6.70;64.80;;;;;;6224347;23;20024;-59
2021/03/30 03:15:01;;;;;;;7.07;2.92;;;6.80;64.90;;;;;;6211203;23;20000;-59
2021/03/30 03:17:26;;;;;;;7.28;2.50;;;7.20;63.30;;;;;;6174174;23;20009;-59
2021/03/30 03:19:52;;;;;;;5.32;2.72;;;7.40;62.60;;;;;;6201544;23;20067;-59
2021/03/30 03:22:18;;;;;;;4.50;2.97;;;7.50;61.90;;;;;;6203447;23;20005;-59
2021/03/30 03:24:46;;;;;;;5.25;2.65;;;7.50;61.60;;;;;;6232485;23;20012;-59
2021/03/30 03:27:12;;;;;;;5.03;2.75;;;7.40;61.20;;;;;;6210278;23;20012;-59
2021/03/30 03:29:37;;;;;;;4.80;2.75;;;7.20;61.40;;;;;;6197702;23;20008;-60
2021/03/30 03:32:03;;;;;;;5.88;2.97;;;7.40;61.70;;;;;;6200554;23;20054;-59
2021/03/30 03:34:29;;;;;;;4.72;2.80;;;7.30;61.50;;;;;;6224328;23;20051;-59
2021/03/30 03:36:58;;;;;;;4.65;2.67;;;7.40;61.00;;;;;;6230972;23;20000;-59
2021/03/30 03:39:24;;;;;;;7.88;2.97;;;7.10;59.50;;;;;;6207381;23;20007;-59
2021/03/30 03:41:49;;;;;;;7.68;3.25;;;6.80;62.30;;;;;;6236313;23;20005;-59
2021/03/30 03:44:15;;;;;;;10.52;3.05;;;6.80;63.20;;;;;;6174225;23;20072;-59
2021/03/30 03:46:41;;;;;;;10.38;2.95;;;6.90;61.20;;;;;;6216456;23;20009;-59
2021/03/30 03:49:07;;;;;;;6.90;3.15;;;6.20;61.60;;;;;;6230666;23;20314;-59
2021/03/30 03:51:38;;;;;;;5.53;2.63;;;6.10;62.70;;;;;;6228172;23;20009;-59
2021/03/30 03:54:06;;;;;;;5.35;2.80;;;6.10;63.70;;;;;;6206649;23;20176;-59
2021/03/30 03:57:04;;;;;;;9.52;2.95;;;6.50;63.80;;;;;;6223498;23;20019;-59
2021/03/30 03:59:34;;;;;;;6.28;2.88;;;6.70;64.40;;;;;;6193821;23;20239;-59
2021/03/30 04:02:08;;;;;;;7.07;3.08;;;6.70;63.10;;;;;;6201125;23;20064;-59
2021/03/30 04:04:50;;;;;;;5.88;2.80;;;7.00;63.20;;;;;;6228554;23;20027;-59
2021/03/30 04:07:20;;;;;;;8.98;2.72;;;6.90;63.10;;;;;;6204489;23;20000;-59
2021/03/30 04:09:48;;;;;;;6.05;2.70;;;6.60;62.70;;;;;;6192076;23;20012;-59
2021/03/30 04:12:15;;;;;;;7.13;3.08;;;6.40;63.70;;;;;;6180087;23;20064;-59
2021/03/30 04:14:41;;;;;;;4.00;2.50;;;6.70;63.60;;;;;;6212141;23;19997;-59
2021/03/30 04:17:06;;;;;;;9.90;2.97;;;6.30;63.50;;;;;;6228082;23;20000;-59
2021/03/30 04:19:37;;;;;;;6.55;2.70;;;6.50;62.70;;;;;;6203995;23;20027;-59
2021/03/30 04:22:03;;;;;;;6.25;2.90;;;6.20;63.80;;;;;;6232629;23;20051;-59
2021/03/30 04:24:28;;;;;;;8.10;3.13;;;6.20;64.90;;;;;;6226181;23;20001;-59
2021/03/30 04:26:54;;;;;;;12.13;3.58;;;6.70;64.00;;;;;;6238019;23;20280;-59
2021/03/30 04:29:19;;;;;;;12.70;3.40;;;6.90;63.40;;;;;;6201385;23;20007;-59
2021/03/30 04:31:45;;;;;;;8.20;3.10;;;6.80;61.90;;;;;;6229332;23;20020;-59
2021/03/30 04:34:10;;;;;;;7.22;2.92;;;6.60;63.40;;;;;;6231638;23;19996;-59
2021/03/30 04:36:36;;;;;;;5.93;3.08;;;6.80;62.90;;;;;;6226036;23;20003;-59
2021/03/30 04:39:02;;;;;;;7.38;2.80;;;6.20;64.20;;;;;;6237945;23;20048;-59
2021/03/30 04:41:27;;;;;;;7.25;2.72;;;6.80;63.40;;;;;;6225958;23;20004;-59
2021/03/30 04:43:53;;;;;;;6.53;2.90;;;6.90;62.20;;;;;;6228647;23;20008;-59
2021/03/30 04:46:18;;;;;;;10.77;3.33;;;6.90;62.30;;;;;;6231088;23;20114;-59
2021/03/30 04:48:44;;;;;;;9.45;3.60;;;6.40;62.00;;;;;;6233147;23;20093;-59
2021/03/30 04:51:09;;;;;;;7.07;3.33;;;5.80;62.80;;;;;;6238664;23;20052;-59
2021/03/30 04:53:35;;;;;;;6.63;3.25;;;6.00;64.50;;;;;;6225897;23;20020;-59
2021/03/30 04:56:03;;;;;;;6.90;3.08;;;5.70;63.40;;;;;;6227950;23;20153;-59
2021/03/30 04:58:29;;;;;;;12.85;3.85;;;5.50;64.90;;;;;;6213727;23;20296;-59
2021/03/30 05:00:55;;;;;;;10.43;3.40;;;5.50;64.60;;;;;;6211518;23;20003;-59
2021/03/30 05:03:20;;;;;;;11.35;3.35;;;5.30;65.40;;;;;;6235293;23;20284;-59
2021/03/30 05:05:46;;;;;;;12.00;3.55;;;5.80;65.50;;;;;;6238176;23;19993;-59
2021/03/30 05:08:11;;;;;;;8.10;3.20;;;6.30;64.60;;;;;;6227888;23;20307;-59
2021/03/30 05:10:37;;;;;;;12.48;3.45;;;6.50;63.40;;;;;;6229248;23;20308;-59
2021/03/30 05:13:02;;;;;;;10.57;3.47;;;6.20;62.50;;;;;;6231701;23;20017;-59
2021/03/30 05:15:28;;;;;;;8.85;3.53;;;5.60;65.00;;;;;;6234544;23;20044;-59
2021/03/30 05:17:53;;;;;;;12.80;3.75;;;6.00;65.50;;;;;;6237850;23;20004;-59
2021/03/30 05:20:19;;;;;;;11.38;3.30;;;6.30;64.70;;;;;;6227071;23;20043;-59
2021/03/30 05:22:44;;;;;;;11.35;3.50;;;6.10;63.30;;;;;;6225417;23;20019;-59
2021/03/30 05:25:10;;;;;;;10.82;3.30;;;5.70;64.70;;;;;;6225331;23;20004;-60
2021/03/30 05:27:36;;;;;;;17.05;3.85;;;6.00;65.80;;;;;;6225277;23;20008;-60
2021/03/30 05:30:06;;;;;;;8.85;3.72;;;6.20;65.90;;;;;;6237756;23;20005;-60
2021/03/30 05:32:31;;;;;;;6.88;3.10;;;6.30;63.50;;;;;;6225474;23;20009;-60
2021/03/30 05:34:57;;;;;;;11.02;3.50;;;6.10;65.20;;;;;;6199312;23;20005;-60
2021/03/30 05:37:23;;;;;;;9.10;3.33;;;6.10;64.80;;;;;;6230339;23;20008;-60
2021/03/30 05:39:48;;;;;;;12.25;3.58;;;6.50;65.10;;;;;;6226007;23;20245;-60
2021/03/30 05:42:17;;;;;;;7.57;3.33;;;6.80;64.10;;;;;;6234874;23;20005;-60
2021/03/30 05:44:43;;;;;;;11.65;3.30;;;6.90;63.80;;;;;;6237487;23;20001;-60
2021/03/30 05:47:15;;;;;;;6.60;3.22;;;6.90;63.70;;;;;;6201046;23;20015;-60
2021/03/30 05:49:42;;;;;;;13.38;3.38;;;6.90;63.00;;;;;;6229685;23;20009;-60
2021/03/30 05:52:12;;;;;;;8.70;3.80;;;6.60;63.10;;;;;;6219581;23;20016;-60
2021/03/30 05:54:38;;;;;;;13.25;4.47;;;6.70;64.90;;;;;;6209200;23;20295;-60
2021/03/30 05:57:05;;;;;;;19.30;4.20;;;6.80;63.90;;;;;;6237581;23;20007;-61
2021/03/30 05:59:32;;;;;;;19.25;4.07;;;6.70;63.60;;;;;;6199758;23;20009;-60
2021/03/30 06:01:57;;;;;;;28.45;4.25;;;6.70;64.10;;;;;;6201528;23;20067;-60
2021/03/30 06:04:23;;;;;;;18.30;3.80;;;6.80;64.50;;;;;;6203788;23;20227;-60
2021/03/30 06:06:49;;;;;;;15.15;3.67;;;6.90;63.10;;;;;;6224332;23;20001;-60
2021/03/30 06:09:17;;;;;;;8.45;3.10;;;7.20;62.60;;;;;;6205013;23;19996;-59
2021/03/30 06:11:43;;;;;;;8.52;2.78;;;7.40;62.00;;;;;;6210846;23;20008;-60
2021/03/30 06:14:08;;;;;;;9.93;3.10;;;7.50;60.70;;;;;;6227268;23;20181;-60
2021/03/30 06:16:39;;;;;;;8.88;2.67;;;7.50;59.90;;;;;;6228769;23;20012;-60
2021/03/30 06:19:05;;;;;;;9.00;2.93;;;7.80;59.00;;;;;;6231064;23;20012;-60
2021/03/30 06:21:33;;;;;;;18.42;3.75;;;7.90;58.50;;;;;;6198420;23;20367;-59
2021/03/30 06:23:59;;;;;;;19.25;3.13;;;8.00;58.80;;;;;;6211066;23;19997;-60
2021/03/30 06:26:26;;;;;;;13.27;3.40;;;8.00;58.40;;;;;;6197828;23;20176;-60
2021/03/30 06:28:51;;;;;;;9.57;2.70;;;8.30;58.50;;;;;;6218270;23;20031;-60
2021/03/30 06:31:17;;;;;;;5.47;3.03;;;8.40;57.30;;;;;;6223810;23;20015;-60
2021/03/30 06:33:56;;;;;;;16.38;3.40;;;8.70;56.70;;;;;;6198715;23;20008;-60
2021/03/30 06:36:28;;;;;;;7.40;2.80;;;9.00;55.90;;;;;;6203901;23;20027;-60
2021/03/30 06:39:02;;;;;;;12.45;3.95;;;9.40;54.90;;;;;;6206226;23;20008;-61
2021/03/30 06:44:30;;;;;;;6.88;2.85;;;10.20;54.40;;;;;;6203705;23;20009;-61
2021/03/30 06:47:14;;;;;;;20.60;3.70;;;10.50;52.10;;;;;;6218607;23;20035;-61
2021/03/30 06:49:58;;;;;;;6.32;2.92;;;11.20;51.70;;;;;;6225043;23;20072;-61
2021/03/30 06:52:37;;;;;;;7.07;3.47;;;11.90;49.00;;;;;;6229382;23;20039;-61
2021/03/30 06:55:03;;;;;;;7.38;3.17;;;12.50;47.30;;;;;;6230708;23;20153;-61
2021/03/30 06:57:49;;;;;;;8.18;3.40;;;13.10;45.50;;;;;;6206795;23;19997;-61
2021/03/30 07:00:27;;;;;;;6.68;3.30;;;13.90;43.20;;;;;;6237299;23;20011;-61
2021/03/30 07:02:54;;;;;;;6.30;3.13;;;14.60;42.30;;;;;;6225373;23;20008;-61
2021/03/30 07:05:42;;;;;;;6.40;2.97;;;15.30;40.20;;;;;;6225586;23;20025;-61
2021/03/30 07:08:12;;;;;;;8.18;3.20;;;16.30;37.60;;;;;;6226043;23;20008;-61
2021/03/30 07:10:39;;;;;;;8.60;2.95;;;17.90;34.60;;;;;;6228848;23;20038;-61
2021/03/30 07:13:08;;;;;;;5.80;3.30;;;19.90;31.20;;;;;;6230395;23;20016;-61
2021/03/30 07:15:34;;;;;;;5.22;2.78;;;21.70;28.20;;;;;;6232466;23;20012;-61
2021/03/30 07:18:26;;;;;;;5.80;2.78;;;23.30;26.30;;;;;;6236699;23;20008;-62
2021/03/30 07:21:00;;;;;;;7.50;2.90;;;24.90;24.40;;;;;;6225356;23;20016;-61
2021/03/30 07:23:27;;;;;;;13.93;3.05;;;26.20;22.40;;;;;;6172901;23;20013;-61
2021/03/30 07:26:01;;;;;;;9.40;3.60;;;27.50;20.60;;;;;;6217529;23;20013;-61
2021/03/30 07:28:28;;;;;;;10.48;3.80;;;29.30;19.10;;;;;;6229514;23;20120;-61
2021/03/30 07:30:55;;;;;;;10.77;3.97;;;31.00;17.30;;;;;;6204944;23;20015;-61
2021/03/30 07:33:27;;;;;;;7.90;3.83;;;32.90;15.90;;;;;;6206833;23;20005;-61
2021/03/30 07:35:52;;;;;;;8.52;3.83;;;34.50;14.80;;;;;;6209223;23;20015;-61
2021/03/30 07:38:24;;;;;;;9.52;4.18;;;36.20;13.20;;;;;;6199346;23;20032;-61
2021/03/30 07:40:49;;;;;;;7.40;3.97;;;38.20;12.20;;;;;;6201285;23;20009;-59
2021/03/30 07:43:24;;;;;;;9.07;3.67;;;39.90;10.70;;;;;;6216367;23;20258;-59
2021/03/30 07:45:49;;;;;;;10.40;4.20;;;41.70;10.50;;;;;;6175812;23;20161;-60
2021/03/30 07:48:15;;;;;;;10.13;3.83;;;42.60;8.90;;;;;;6204404;23;20008;-59
2021/03/30 07:53:42;;;;;;;11.40;3.65;;;44.60;8.20;;;;;;6225335;23;20076;-59
2021/03/30 07:56:28;;;;;;;14.30;4.13;;;44.20;8.40;;;;;;6226705;23;20012;-59
2021/03/30 07:58:55;;;;;;;9.52;3.10;;;44.70;7.40;;;;;;6210153;23;20009;-59
2021/03/30 08:01:22;;;;;;;8.45;3.20;;;45.30;7.70;;;;;;6229378;23;20173;-59
2021/03/30 08:03:49;;;;;;;13.70;3.45;;;46.60;7.00;;;;;;6231437;23;20005;-59
2021/03/30 08:06:31;;;;;;;9.00;3.05;;;47.40;7.20;;;;;;6234037;23;19997;-59
2021/03/30 08:08:58;;;;;;;9.63;2.80;;;48.10;6.80;;;;;;6226314;23;20063;-60
2021/03/30 08:11:43;;;;;;;6.93;2.60;;;47.60;6.90;;;;;;6224840;23;20064;-59
2021/03/30 08:14:18;;;;;;;8.45;2.90;;;48.60;6.50;;;;;;6226221;23;20017;-59
2021/03/30 08:16:48;;;;;;;9.63;2.05;;;48.20;7.10;;;;;;6227966;23;20032;-59
2021/03/30 08:19:14;;;;;;;5.38;2.10;;;46.70;6.50;;;;;;6204345;23;20071;-59
2021/03/30 08:22:07;;;;;;;9.20;2.60;;;38.70;11.00;;;;;;6166529;23;20001;-59
2021/03/30 08:24:45;;;;;;;12.32;2.50;;;33.00;15.40;;;;;;6195005;23;20066;-61
2021/03/30 08:27:32;;;;;;;9.85;2.30;;;29.60;17.30;;;;;;6236827;23;20216;-59
2021/03/30 08:30:06;;;;;;;10.73;2.47;;;27.60;19.50;;;;;;6224997;23;20001;-61
2021/03/30 08:32:32;;;;;;;8.38;2.63;;;26.10;20.30;;;;;;6224759;23;20009;-61
2021/03/30 08:34:58;;;;;;;13.38;2.83;;;25.00;22.40;;;;;;6226601;23;20284;-61
2021/03/30 08:37:24;;;;;;;10.70;2.90;;;24.60;22.60;;;;;;6228958;23;20011;-61
2021/03/30 08:39:49;;;;;;;13.48;2.80;;;23.90;22.50;;;;;;6231246;23;20196;-61
2021/03/30 08:42:19;;;;;;;8.05;2.30;;;23.40;23.10;;;;;;6233717;23;20012;-61
2021/03/30 08:44:49;;;;;;;7.63;2.57;;;22.90;23.30;;;;;;6236099;23;20319;-61
2021/03/30 08:47:32;;;;;;;6.57;2.33;;;22.80;23.60;;;;;;6225647;23;20008;-67
2021/03/30 08:50:24;;;;;;;5.35;2.30;;;22.80;24.90;;;;;;6200016;23;20032;-67
2021/03/30 08:52:53;;;;;;;7.18;2.50;;;22.60;24.00;;;;;;6227248;23;20076;-67
2021/03/30 08:55:26;;;;;;;13.50;2.45;;;22.30;25.30;;;;;;6229864;23;20005;-68
2021/03/30 08:57:51;;;;;;;8.57;2.67;;;22.30;23.70;;;;;;6232606;23;20058;-67
2021/03/30 09:00:18;;;;;;;7.93;3.20;;;22.30;26.30;;;;;;6234883;23;20283;-67
2021/03/30 09:02:43;;;;;;;8.65;2.88;;;22.30;24.50;;;;;;6237997;23;20000;-67
2021/03/30 09:05:16;;;;;;;7.47;2.90;;;22.10;26.20;;;;;;6201247;23;20080;-66
2021/03/30 09:07:51;;;;;;;9.27;3.42;;;22.10;25.00;;;;;;6229327;23;20016;-67
2021/03/30 09:10:17;;;;;;;9.77;3.78;;;22.30;26.00;;;;;;6230702;23;20000;-67
2021/03/30 09:12:46;;;;;;;14.60;3.50;;;22.30;25.40;;;;;;6233201;23;20044;-66
2021/03/30 09:15:14;;;;;;;15.30;4.10;;;22.30;25.20;;;;;;6227561;23;20031;-66
2021/03/30 09:18:00;;;;;;;13.18;3.90;;;22.20;25.00;;;;;;6199338;23;20009;-67
2021/03/30 09:20:27;;;;;;;12.98;3.95;;;22.30;25.30;;;;;;6226506;23;20054;-67
2021/03/30 09:22:55;;;;;;;10.05;4.22;;;22.30;25.10;;;;;;6228317;23;20004;-67
2021/03/30 09:27:46;;;;;;;10.98;3.95;;;22.40;24.90;;;;;;6206375;23;20011;-66
2021/03/30 09:30:17;;;;;;;13.77;4.22;;;22.50;25.20;;;;;;6235724;23;20043;-66
2021/03/30 09:32:43;;;;;;;12.93;3.97;;;22.70;26.20;;;;;;6227504;23;20059;-67
2021/03/30 09:35:13;;;;;;;11.80;4.20;;;22.50;25.50;;;;;;6226958;23;20385;-66
2021/03/30 09:37:44;;;;;;;13.85;3.50;;;22.50;25.30;;;;;;6229191;23;20079;-66
2021/03/30 09:40:17;;;;;;;13.85;3.83;;;22.50;25.60;;;;;;6231569;23;20071;-67
2021/03/30 09:42:43;;;;;;;14.35;3.97;;;22.70;25.20;;;;;;6232851;23;20008;-66
2021/03/30 09:45:13;;;;;;;13.95;4.60;;;22.70;25.00;;;;;;6211052;23;20035;-58
2021/03/30 09:47:39;;;;;;;11.02;4.22;;;22.60;25.70;;;;;;6225984;23;20072;-58
2021/03/30 09:50:06;;;;;;;10.25;4.18;;;22.60;25.60;;;;;;6201142;23;20051;-58
2021/03/30 09:52:32;;;;;;;8.93;4.30;;;22.70;27.30;;;;;;6199190;23;20012;-60
2021/03/30 09:54:58;;;;;;;11.95;4.57;;;22.70;25.10;;;;;;6199082;23;20004;-62
2021/03/30 09:57:30;;;;;;;14.77;4.00;;;22.80;25.10;;;;;;6234099;23;20173;-59
2021/03/30 09:59:56;;;;;;;14.40;4.80;;;22.80;25.00;;;;;;6237450;23;20008;-59
2021/03/30 10:02:26;;;;;;;15.35;5.32;;;22.80;25.10;;;;;;6226385;23;20059;-57
2021/03/30 10:04:56;;;;;;;20.88;4.93;;;22.90;25.60;;;;;;6228398;23;20016;-60
2021/03/30 10:07:22;;;;;;;8.45;5.22;;;22.80;25.00;;;;;;6215358;23;20013;-62
2021/03/30 10:09:58;;;;;;;11.55;5.00;;;23.00;25.30;;;;;;6210271;23;20024;-63
2021/03/30 10:12:27;;;;;;;12.93;5.75;;;22.90;23.70;;;;;;6233472;23;20068;-62
2021/03/30 10:14:53;;;;;;;14.07;5.28;;;22.90;23.80;;;;;;6237143;23;19997;-61
2021/03/30 10:17:19;;;;;;;15.13;5.18;;;23.10;24.60;;;;;;6226182;23;20096;-62
2021/03/30 10:19:50;;;;;;;7.75;4.60;;;23.10;25.50;;;;;;6228595;23;20196;-62
2021/03/30 10:22:26;;;;;;;12.95;5.18;;;22.90;24.60;;;;;;6230290;23;20000;-62
2021/03/30 10:25:11;;;;;;;15.23;5.78;;;22.70;25.40;;;;;;6232383;23;20035;-62
2021/03/30 10:27:47;;;;;;;12.13;5.20;;;22.80;25.30;;;;;;6232930;23;19993;-60
2021/03/30 10:30:13;;;;;;;11.98;4.60;;;22.80;26.80;;;;;;6237193;23;20022;-61
2021/03/30 10:32:48;;;;;;;10.63;4.20;;;22.80;26.60;;;;;;6225300;23;20008;-62
2021/03/30 10:35:14;;;;;;;9.63;5.18;;;23.00;26.50;;;;;;6225981;23;20001;-64
2021/03/30 10:37:40;;;;;;;5.82;4.40;;;22.90;25.80;;;;;;6228036;23;20036;-63
2021/03/30 10:40:07;;;;;;;11.35;5.05;;;23.20;27.30;;;;;;6224867;23;20225;-63
2021/03/30 10:42:37;;;;;;;8.05;5.30;;;23.30;25.60;;;;;;6233052;23;19999;-62
2021/03/30 10:45:08;;;;;;;12.20;4.97;;;23.40;26.60;;;;;;6237308;23;20322;-61
2021/03/30 10:47:35;;;;;;;11.10;4.63;;;23.30;26.00;;;;;;6225322;23;20001;-60
2021/03/30 10:50:02;;;;;;;9.43;3.40;;;23.30;25.70;;;;;;6227451;23;20284;-62
2021/03/30 10:52:32;;;;;;;11.15;3.85;;;23.20;26.00;;;;;;6213358;23;20058;-59
2021/03/30 10:54:59;;;;;;;7.50;4.28;;;23.20;26.60;;;;;;6193291;23;20005;-59
2021/03/30 10:57:27;;;;;;;5.18;3.70;;;23.30;26.90;;;;;;6170843;23;20008;-61
2021/03/30 10:59:55;;;;;;;8.43;4.15;;;23.50;25.20;;;;;;6210843;23;20009;-61
2021/03/30 11:02:21;;;;;;;12.90;4.25;;;23.30;26.50;;;;;;6225098;23;20024;-60
2021/03/30 11:04:47;;;;;;;6.85;3.95;;;23.20;25.60;;;;;;6201663;23;20005;-59
2021/03/30 11:07:12;;;;;;;7.57;3.10;;;23.10;25.90;;;;;;6230282;23;20012;-60
2021/03/30 11:09:38;;;;;;;11.52;4.35;;;23.30;26.40;;;;;;6226902;23;19997;-60
2021/03/30 11:12:04;;;;;;;6.25;2.42;;;23.30;24.60;;;;;;6179847;23;20008;-58
2021/03/30 11:14:29;;;;;;;5.50;2.85;;;23.50;25.50;;;;;;6196893;23;20004;-65
2021/03/30 11:16:55;;;;;;;8.05;3.25;;;23.30;24.20;;;;;;6176258;23;20064;-66
2021/03/30 11:19:21;;;;;;;5.93;2.58;;;23.30;22.80;;;;;;6213792;23;20009;-66
2021/03/30 11:21:46;;;;;;;5.20;2.63;;;23.50;23.60;;;;;;6205197;23;20001;-66
2021/03/30 11:24:15;;;;;;;4.57;2.75;;;23.70;23.00;;;;;;6223999;23;20000;-64
2021/03/30 11:26:43;;;;;;;5.95;2.60;;;23.80;23.10;;;;;;6206228;23;19997;-66
2021/03/30 11:29:12;;;;;;;6.20;2.50;;;23.80;22.30;;;;;;6221218;23;20231;-65
2021/03/30 11:31:59;;;;;;;4.95;2.70;;;23.80;22.60;;;;;;6228606;23;20176;-65
2021/03/30 11:36:55;;;;;;;6.68;2.90;;;23.80;21.20;;;;;;6231640;23;19997;-65
2021/03/30 11:39:21;;;;;;;7.47;2.60;;;23.80;22.80;;;;;;6209464;23;20260;-65
2021/03/30 11:41:46;;;;;;;5.32;3.10;;;23.90;23.30;;;;;;6237593;23;20001;-65
2021/03/30 11:44:12;;;;;;;8.40;3.10;;;24.00;22.90;;;;;;6226448;23;20031;-65
2021/03/30 11:46:37;;;;;;;8.18;3.33;;;24.10;23.10;;;;;;6229042;23;20176;-64
2021/03/30 11:49:03;;;;;;;8.85;3.30;;;24.20;22.90;;;;;;6231301;23;20043;-64
2021/03/30 11:51:28;;;;;;;7.45;3.20;;;24.10;23.60;;;;;;6229632;23;20169;-65
2021/03/30 11:53:54;;;;;;;5.88;3.28;;;24.30;22.50;;;;;;6171715;23;19993;-65
2021/03/30 11:56:20;;;;;;;3.38;2.20;;;24.20;22.60;;;;;;6223252;23;20004;-65
2021/03/30 11:58:45;;;;;;;5.88;2.50;;;24.20;21.90;;;;;;6201738;23;20009;-64
2021/03/30 12:01:11;;;;;;;6.57;2.30;;;24.20;21.70;;;;;;6230363;23;20013;-65
2021/03/30 12:03:37;;;;;;;5.35;2.30;;;24.40;21.90;;;;;;6232644;23;20080;-65
2021/03/30 12:06:06;;;;;;;6.50;2.88;;;24.60;22.40;;;;;;6236002;23;20007;-65
2021/03/30 12:08:33;;;;;;;5.93;2.63;;;24.40;20.60;;;;;;6224351;23;20296;-65
2021/03/30 12:10:58;;;;;;;8.07;3.20;;;24.60;22.10;;;;;;6224166;23;20322;-65
2021/03/30 12:13:24;;;;;;;7.28;2.50;;;24.70;21.90;;;;;;6229386;23;20020;-65
2021/03/30 12:15:50;;;;;;;5.90;2.50;;;24.70;22.10;;;;;;6231451;23;20012;-65
2021/03/30 12:18:15;;;;;;;5.93;2.63;;;24.70;21.00;;;;;;6233482;23;20004;-64
2021/03/30 12:20:41;;;;;;;6.53;2.58;;;24.70;21.90;;;;;;6236222;23;20003;-65
2021/03/30 12:23:06;;;;;;;5.72;2.50;;;24.70;21.50;;;;;;6225785;23;20008;-63
2021/03/30 12:25:32;;;;;;;8.45;2.80;;;24.70;21.30;;;;;;6201989;23;20012;-64
2021/03/30 12:27:57;;;;;;;7.40;2.45;;;24.80;21.50;;;;;;6223792;23;20292;-59
2021/03/30 12:30:23;;;;;;;7.68;2.40;;;24.90;21.70;;;;;;6231677;23;20003;-63
2021/03/30 12:32:49;;;;;;;7.13;2.50;;;24.70;21.90;;;;;;6182103;23;20005;-64
2021/03/30 12:35:14;;;;;;;6.38;2.67;;;24.90;22.60;;;;;;6195410;23;20067;-64
2021/03/30 12:37:40;;;;;;;5.63;2.22;;;24.90;20.50;;;;;;6203379;23;20067;-64
2021/03/30 12:40:06;;;;;;;7.40;2.33;;;25.00;22.80;;;;;;6232136;23;20001;-64
2021/03/30 12:42:32;;;;;;;3.50;2.15;;;25.00;22.70;;;;;;6221484;23;20020;-64
2021/03/30 12:44:57;;;;;;;6.68;2.00;;;25.20;22.70;;;;;;6208142;23;20284;-65
2021/03/30 12:47:23;;;;;;;4.15;2.17;;;25.20;22.40;;;;;;6196880;23;20009;-64
2021/03/30 12:49:49;;;;;;;10.98;2.25;;;25.30;22.10;;;;;;6219176;23;20004;-65
2021/03/30 12:52:14;;;;;;;4.55;2.28;;;25.30;21.50;;;;;;6230767;23;20008;-64
2021/03/30 12:54:40;;;;;;;6.47;2.50;;;25.00;19.50;;;;;;6233432;23;20292;-64
2021/03/30 12:57:05;;;;;;;5.40;1.80;;;25.10;21.00;;;;;;6237937;23;20005;-64
2021/03/30 12:59:31;;;;;;;5.68;2.00;;;25.20;21.00;;;;;;6199403;23;20004;-64
2021/03/30 13:01:57;;;;;;;6.78;2.30;;;25.00;20.10;;;;;;6206611;23;20060;-64
2021/03/30 13:04:22;;;;;;;8.13;2.63;;;25.20;21.40;;;;;;6215162;23;20057;-64
2021/03/30 13:06:48;;;;;;;5.25;2.53;;;25.30;22.80;;;;;;6232579;23;20046;-64
2021/03/30 13:09:13;;;;;;;8.57;2.70;;;25.30;20.70;;;;;;6237766;23;20017;-64